Time;durP1;ratioP1;P1;durP2;ratioP2;P2;SDS_P1;SDS_P2;PMS_P1;PMS_P2;Temp;Humidity;BMP_temperature;BMP_pressure;BME280_temperature;BME280_humidity;BME280_pressure;Samples;Min_cycle;Max_cycle;Signal;HPM_P1;HPM_P2
2022/10/16 00:01:59;;;;;;;10.25;6.10;;;;;;;7.49;76.22;100188.06;4930275;28;20038;-93
2022/10/16 00:04:24;;;;;;;10.73;6.45;;;;;;;7.29;77.18;100174.97;4929626;28;20027;-92
2022/10/16 00:06:50;;;;;;;8.50;5.35;;;;;;;7.44;77.46;100190.63;4945327;28;20065;-93
2022/10/16 00:09:15;;;;;;;11.20;6.03;;;;;;;7.44;77.08;100193.31;4928782;28;20026;-95
2022/10/16 00:11:41;;;;;;;10.60;7.20;;;;;;;7.35;77.13;100176.75;4929129;28;20031;-95
2022/10/16 00:14:10;;;;;;;9.50;6.70;;;;;;;7.37;77.51;100187.25;4928911;28;20031;-92
2022/10/16 00:16:35;;;;;;;11.10;6.60;;;;;;;7.38;77.46;100186.19;4926431;29;20090;-92
2022/10/16 00:19:00;;;;;;;9.20;6.45;;;;;;;7.43;77.13;100199.72;4925406;29;20505;-95
2022/10/16 00:21:27;;;;;;;7.85;5.85;;;;;;;7.41;76.77;100185.75;4930041;29;20154;-95
2022/10/16 00:23:59;;;;;;;9.57;6.25;;;;;;;7.44;76.22;100204.84;4925295;29;20042;-95
2022/10/16 00:26:24;;;;;;;11.43;5.85;;;;;;;7.36;76.54;100201.66;4926406;29;20031;-94
2022/10/16 00:28:53;;;;;;;11.00;6.05;;;;;;;7.21;76.54;100191.34;4925194;29;20034;-95
2022/10/16 00:31:19;;;;;;;9.35;6.60;;;;;;;7.11;76.98;100191.06;4938442;29;20031;-93
2022/10/16 00:33:45;;;;;;;8.57;5.85;;;;;;;7.17;76.83;100201.69;4922341;29;20034;-96
2022/10/16 00:36:16;;;;;;;9.75;6.28;;;;;;;7.29;76.71;100212.47;4922015;29;20024;-94
2022/10/16 00:38:41;;;;;;;7.88;5.50;;;;;;;7.28;76.80;100214.34;4921829;29;20039;-96
2022/10/16 00:41:07;;;;;;;12.38;5.60;;;;;;;7.21;76.51;100199.38;4899532;29;20042;-94
2022/10/16 00:43:35;;;;;;;9.35;5.80;;;;;;;7.38;77.00;100226.38;4906505;29;20024;-95
2022/10/16 00:46:02;;;;;;;11.13;5.97;;;;;;;7.22;76.71;100207.22;4946836;29;20102;-93
2022/10/16 00:48:27;;;;;;;7.57;5.78;;;;;;;7.14;76.82;100202.16;4906013;29;20504;-94
2022/10/16 00:50:53;;;;;;;8.52;5.95;;;;;;;7.11;76.46;100202.59;4905957;29;20134;-94
2022/10/16 00:53:18;;;;;;;8.60;5.63;;;;;;;7.13;76.30;100221.13;4905915;29;20036;-94
2022/10/16 00:55:45;;;;;;;8.00;5.47;;;;;;;7.06;76.58;100231.91;4915319;29;20396;-94
2022/10/16 00:58:11;;;;;;;9.85;5.75;;;;;;;7.01;77.01;100235.25;4924788;29;20083;-94
2022/10/16 01:00:39;;;;;;;9.43;5.75;;;;;;;6.88;77.33;100225.50;4930074;29;20031;-94
2022/10/16 01:03:25;;;;;;;8.68;6.03;;;;;;;6.80;77.67;100222.31;4909581;29;20031;-94
2022/10/16 01:06:07;;;;;;;8.35;6.20;;;;;;;7.00;77.72;100232.81;4925270;29;20031;-95
2022/10/16 01:08:57;;;;;;;10.38;6.72;;;;;;;7.05;77.16;100241.78;4927313;29;20094;-94
2022/10/16 01:11:32;;;;;;;8.45;5.88;;;;;;;7.08;76.81;100251.25;4926295;29;20058;-94
2022/10/16 01:13:59;;;;;;;7.60;5.55;;;;;;;6.97;77.28;100233.25;4941097;29;20045;-95
2022/10/16 01:16:48;;;;;;;9.43;5.22;;;;;;;7.04;77.69;100247.38;4920879;29;20122;-94
2022/10/16 01:19:22;;;;;;;11.45;6.03;;;;;;;7.07;77.88;100245.06;4921019;29;20028;-94
2022/10/16 01:21:48;;;;;;;8.18;5.88;;;;;;;6.96;77.73;100237.78;4938506;29;20059;-94
2022/10/16 01:24:27;;;;;;;9.10;6.00;;;;;;;6.94;77.70;100236.38;4940023;29;20031;-95
2022/10/16 01:27:20;;;;;;;8.73;5.43;;;;;;;6.82;77.31;100247.00;4940487;29;20038;-94
2022/10/16 01:29:48;;;;;;;9.30;5.10;;;;;;;6.82;78.05;100258.53;4940594;29;20539;-94
2022/10/16 01:32:42;;;;;;;8.05;5.75;;;;;;;6.75;77.87;100246.25;5124306;27;281288;-93
2022/10/16 01:35:36;;;;;;;10.23;5.53;;;;;;;6.78;77.80;100253.84;5096650;28;20035;-95
2022/10/16 01:38:21;;;;;;;9.55;6.38;;;;;;;6.78;77.42;100262.69;5097114;28;20027;-96
2022/10/16 01:40:51;;;;;;;8.13;5.30;;;;;;;6.57;77.32;100244.38;5093698;28;20039;-95
2022/10/16 01:43:26;;;;;;;6.75;5.32;;;;;;;6.51;77.88;100245.25;5060076;28;20059;-96
2022/10/16 01:45:51;;;;;;;9.73;6.05;;;;;;;6.56;77.51;100248.09;5070623;28;20393;-96
2022/10/16 01:48:18;;;;;;;7.00;5.43;;;;;;;6.61;77.14;100262.44;5080234;28;20027;-95
2022/10/16 01:50:44;;;;;;;14.05;5.70;;;;;;;6.56;77.32;100256.94;5076666;28;20034;-96
2022/10/16 01:53:12;;;;;;;7.82;5.85;;;;;;;6.46;77.44;100240.56;5060390;28;20386;-95
2022/10/16 01:55:44;;;;;;;7.05;5.32;;;;;;;6.43;77.49;100255.22;5068734;28;20485;-95
2022/10/16 01:58:10;;;;;;;7.68;5.57;;;;;;;6.44;77.47;100256.03;5080385;28;20408;-93
2022/10/16 02:00:37;;;;;;;6.93;5.13;;;;;;;6.46;77.38;100262.78;5076563;28;20439;-94
2022/10/16 02:03:02;;;;;;;6.78;5.13;;;;;;;6.55;77.33;100268.66;5059894;28;20477;-93
2022/10/16 02:05:34;;;;;;;11.75;5.38;;;;;;;6.42;77.39;100245.53;5078905;28;20052;-96
2022/10/16 02:07:59;;;;;;;6.20;5.20;;;;;;;6.43;77.16;100254.38;5080825;28;20132;-94
2022/10/16 02:10:30;;;;;;;9.52;5.88;;;;;;;6.45;77.09;100261.16;5076211;28;20028;-93
2022/10/16 02:13:40;;;;;;;10.55;5.95;;;;;;;6.54;77.18;100248.31;5060848;28;20118;-94
2022/10/16 02:16:07;;;;;;;9.52;5.50;;;;;;;6.84;78.11;100277.84;5040157;28;20033;-93
2022/10/16 02:18:35;;;;;;;9.50;5.82;;;;;;;6.59;77.67;100250.31;5084164;28;20035;-96
2022/10/16 02:21:33;;;;;;;8.40;5.60;;;;;;;6.71;78.58;100266.47;5076158;28;20165;-94
2022/10/16 02:24:13;;;;;;;9.65;5.28;;;;;;;6.66;78.18;100265.28;5075998;28;20028;-94
2022/10/16 02:27:02;;;;;;;8.93;5.68;;;;;;;6.72;76.47;100278.81;5078762;28;20489;-95
2022/10/16 02:29:28;;;;;;;7.43;5.28;;;;;;;6.57;76.02;100266.59;5098210;28;20080;-96
2022/10/16 02:31:56;;;;;;;8.27;5.22;;;;;;;6.59;75.54;100274.41;5070677;28;20044;-96
2022/10/16 02:34:22;;;;;;;7.32;4.70;;;;;;;6.38;76.17;100270.25;5055981;28;20028;-96
2022/10/16 02:36:48;;;;;;;6.35;5.00;;;;;;;6.20;76.40;100253.09;5039464;28;20035;-95
2022/10/16 02:39:13;;;;;;;9.43;5.63;;;;;;;6.24;76.92;100281.06;5039297;28;20505;-95
2022/10/16 02:41:39;;;;;;;12.48;5.70;;;;;;;6.17;76.85;100272.28;5055328;28;20058;-94
2022/10/16 02:44:04;;;;;;;8.52;5.55;;;;;;;6.04;77.72;100270.53;5045198;28;20394;-93
2022/10/16 02:46:30;;;;;;;6.80;5.13;;;;;;;6.12;77.51;100276.63;5042209;28;20029;-96
2022/10/16 02:48:55;;;;;;;8.73;5.43;;;;;;;6.19;78.62;100278.22;5025312;28;20020;-93
2022/10/16 02:51:21;;;;;;;7.78;5.22;;;;;;;6.23;77.15;100275.94;5036966;28;20474;-94
2022/10/16 02:53:46;;;;;;;7.28;5.18;;;;;;;6.19;77.85;100285.44;5042054;28;20029;-93
2022/10/16 02:56:12;;;;;;;8.77;5.35;;;;;;;6.15;77.53;100281.56;5036355;28;20453;-93
2022/10/16 02:58:37;;;;;;;6.28;4.88;;;;;;;6.14;77.86;100299.44;5024973;28;20056;-93
2022/10/16 03:01:03;;;;;;;10.80;6.00;;;;;;;5.98;77.87;100278.59;5034579;28;20032;-96
2022/10/16 03:03:29;;;;;;;9.98;5.53;;;;;;;5.91;77.25;100273.22;5025594;28;20020;-93
2022/10/16 03:05:54;;;;;;;9.20;5.55;;;;;;;6.06;77.14;100297.03;5033180;28;20017;-94
2022/10/16 03:08:23;;;;;;;9.88;5.30;;;;;;;5.95;78.11;100287.84;5041281;28;20040;-95
2022/10/16 03:10:49;;;;;;;9.55;5.40;;;;;;;6.04;77.52;100296.44;5042139;28;20040;-93
2022/10/16 03:13:14;;;;;;;12.27;5.55;;;;;;;5.97;77.19;100288.44;5042192;28;20082;-94
2022/10/16 03:15:40;;;;;;;8.48;6.40;;;;;;;6.09;77.39;100303.81;5044987;28;20474;-94
2022/10/16 03:18:05;;;;;;;8.32;5.25;;;;;;;6.09;76.53;100298.47;5047815;28;20051;-94
2022/10/16 03:20:31;;;;;;;7.65;5.35;;;;;;;6.13;76.16;100308.50;5056524;28;20020;-93
2022/10/16 03:22:56;;;;;;;9.30;5.00;;;;;;;5.94;76.00;100283.50;5045089;28;20028;-93
2022/10/16 03:25:22;;;;;;;8.27;5.78;;;;;;;5.94;76.59;100315.59;5061681;28;20020;-95
2022/10/16 03:27:47;;;;;;;9.65;5.20;;;;;;;5.94;76.63;100320.13;5081113;28;20447;-96
2022/10/16 03:30:13;;;;;;;9.02;5.88;;;;;;;5.71;77.27;100300.09;5055225;28;20371;-96
2022/10/16 03:32:39;;;;;;;10.07;5.30;;;;;;;5.76;76.70;100294.91;5024891;28;20052;-93
2022/10/16 03:35:04;;;;;;;6.97;4.80;;;;;;;5.77;77.28;100307.25;5028695;28;20020;-93
2022/10/16 03:37:30;;;;;;;6.82;5.07;;;;;;;5.82;77.46;100317.28;5061350;28;20098;-95
2022/10/16 03:39:55;;;;;;;7.78;5.28;;;;;;;5.69;77.25;100294.13;5058047;28;20024;-96
2022/10/16 03:42:21;;;;;;;6.70;5.20;;;;;;;5.63;77.40;100301.16;5024884;28;20540;-93
2022/10/16 03:44:47;;;;;;;8.57;5.38;;;;;;;5.77;77.37;100325.97;5025031;28;20028;-96
2022/10/16 03:47:12;;;;;;;8.27;5.35;;;;;;;5.61;78.07;100292.53;5041686;28;20024;-93
2022/10/16 03:49:38;;;;;;;6.95;5.00;;;;;;;5.62;78.05;100293.34;5042735;28;20517;-95
2022/10/16 03:52:03;;;;;;;10.65;5.07;;;;;;;5.72;76.72;100307.06;5044221;28;20059;-94
2022/10/16 03:54:32;;;;;;;8.48;5.20;;;;;;;5.74;76.38;100307.66;5042790;28;20024;-96
2022/10/16 03:56:57;;;;;;;6.63;5.25;;;;;;;5.75;76.13;100321.84;5040666;28;20475;-95
2022/10/16 03:59:23;;;;;;;7.38;4.88;;;;;;;5.60;76.50;100306.09;5024613;28;20082;-93
2022/10/16 04:01:48;;;;;;;6.13;4.65;;;;;;;5.57;77.04;100314.53;5024284;28;20020;-95
2022/10/16 04:04:14;;;;;;;7.75;5.28;;;;;;;5.59;77.22;100315.97;5024252;28;20028;-96
2022/10/16 04:06:39;;;;;;;10.27;5.18;;;;;;;5.73;77.47;100314.06;5040975;28;20090;-94
2022/10/16 04:09:05;;;;;;;8.45;5.72;;;;;;;5.75;76.50;100316.50;5043738;28;20023;-95
2022/10/16 04:11:30;;;;;;;7.07;5.53;;;;;;;5.73;76.34;100322.06;5040122;28;20029;-95
2022/10/16 04:13:56;;;;;;;8.13;5.53;;;;;;;5.71;76.62;100328.63;5040378;28;20028;-95
2022/10/16 04:16:24;;;;;;;6.57;4.80;;;;;;;5.63;76.28;100309.16;5040466;28;20033;-94
2022/10/16 04:18:50;;;;;;;10.18;4.82;;;;;;;5.62;75.52;100312.03;5024717;28;20036;-95
2022/10/16 04:21:15;;;;;;;8.85;5.22;;;;;;;5.55;75.63;100311.25;5039330;28;20178;-96
2022/10/16 04:23:42;;;;;;;7.70;5.28;;;;;;;5.49;75.87;100309.44;5040044;28;20023;-95
2022/10/16 04:26:07;;;;;;;6.82;5.05;;;;;;;5.44;76.14;100315.41;5053306;28;20063;-95
2022/10/16 04:28:35;;;;;;;7.57;5.13;;;;;;;5.20;75.94;100312.41;5047304;28;20012;-96
2022/10/16 04:31:04;;;;;;;8.27;5.47;;;;;;;5.09;77.74;100322.91;5047301;28;20478;-96
2022/10/16 04:33:29;;;;;;;7.45;5.53;;;;;;;5.03;77.21;100305.88;5023727;28;20048;-96
2022/10/16 04:35:58;;;;;;;7.38;5.15;;;;;;;5.05;77.62;100323.31;5023604;28;20025;-95
2022/10/16 04:38:24;;;;;;;8.38;5.18;;;;;;;5.02;77.38;100314.91;5023302;28;20085;-95
2022/10/16 04:40:50;;;;;;;6.18;4.93;;;;;;;5.02;77.65;100318.41;5040936;28;20051;-96
2022/10/16 04:43:15;;;;;;;9.82;5.90;;;;;;;5.14;77.93;100334.59;5060503;28;20028;-96
2022/10/16 04:45:41;;;;;;;6.75;5.32;;;;;;;5.11;78.24;100320.88;5053539;28;20469;-96
2022/10/16 04:48:07;;;;;;;9.25;5.55;;;;;;;5.21;77.90;100340.75;5042850;28;20493;-96
2022/10/16 04:50:44;;;;;;;8.73;5.65;;;;;;;5.14;77.58;100339.13;5051162;28;20020;-96
2022/10/16 04:56:43;;;;;;;9.25;5.03;;;;;;;5.31;77.88;100344.81;5133391;28;20031;-96
2022/10/16 04:59:44;;;;;;;9.25;5.38;;;;;;;5.43;77.57;100343.94;5071229;28;20031;-96
2022/10/16 05:03:01;;;;;;;7.32;5.22;;;;;;;5.69;77.14;100344.91;5045127;28;20039;-96
2022/10/16 05:05:48;;;;;;;6.20;4.43;;;;;;;5.77;76.55;100346.50;5023475;28;20105;-96
2022/10/16 05:08:23;;;;;;;6.75;4.35;;;;;;;5.69;77.03;100349.44;5023086;28;20049;-96
2022/10/16 05:11:06;;;;;;;8.27;5.20;;;;;;;5.62;77.42;100352.09;5065460;28;20028;-96
2022/10/16 05:13:49;;;;;;;7.40;5.20;;;;;;;5.64;77.22;100358.06;5070711;28;20043;-96
2022/10/16 05:16:21;;;;;;;8.05;5.32;;;;;;;5.76;76.85;100363.56;5050139;28;20060;-96
2022/10/16 05:19:01;;;;;;;10.55;5.82;;;;;;;5.69;76.44;100363.59;5019503;28;20033;-96
2022/10/16 05:21:47;;;;;;;9.68;5.50;;;;;;;5.75;76.12;100367.25;5066985;28;20025;-96
2022/10/16 05:24:13;;;;;;;8.32;5.30;;;;;;;5.76;75.70;100377.75;4990957;28;20056;-96
2022/10/16 05:26:40;;;;;;;11.40;5.53;;;;;;;5.77;75.42;100386.56;4994976;28;20040;-96
2022/10/16 05:29:11;;;;;;;15.07;6.22;;;;;;;5.60;75.70;100378.22;5032168;28;20083;-96
2022/10/16 05:31:40;;;;;;;11.48;7.13;;;;;;;5.57;76.16;100384.81;5015219;28;20081;-96
2022/10/16 05:34:06;;;;;;;10.48;5.75;;;;;;;5.59;76.24;100381.94;5063627;28;20037;-96
2022/10/16 05:36:32;;;;;;;8.50;5.72;;;;;;;5.64;76.73;100380.28;5071610;28;20101;-96
2022/10/16 05:39:01;;;;;;;10.85;5.97;;;;;;;5.76;76.67;100391.13;5055954;28;20469;-96
2022/10/16 05:41:27;;;;;;;10.38;5.45;;;;;;;5.85;76.28;100389.84;5089555;28;20020;-96
2022/10/16 05:43:56;;;;;;;11.52;5.88;;;;;;;5.98;75.88;100401.56;5072141;28;20028;-96
2022/10/16 05:46:29;;;;;;;9.02;5.93;;;;;;;5.91;75.73;100384.69;5044981;28;20035;-96
2022/10/16 05:49:04;;;;;;;9.95;5.93;;;;;;;6.07;75.64;100394.91;5042214;28;20043;-96
2022/10/16 05:52:21;;;;;;;;;;;;;;;;;;;;;
2022/10/16 05:55:09;;;;;;;9.93;5.65;;;;;;;6.30;75.23;100413.09;5076452;28;20064;-96
2022/10/16 05:57:40;;;;;;;9.52;5.90;;;;;;;6.19;75.62;100397.75;5042846;23;20041;-96
2022/10/16 06:00:07;;;;;;;9.43;5.57;;;;;;;6.33;75.38;100402.00;5012367;28;20052;-96
2022/10/16 06:02:39;;;;;;;9.70;5.40;;;;;;;6.43;74.82;100415.72;5009854;28;20025;-96
2022/10/16 06:05:05;;;;;;;8.57;5.78;;;;;;;6.49;74.38;100414.00;4994707;28;20030;-96
2022/10/16 06:07:38;;;;;;;8.45;5.85;;;;;;;6.56;74.46;100408.63;4992847;28;20036;-96
2022/10/16 06:10:07;;;;;;;9.48;5.82;;;;;;;6.75;74.39;100423.72;4995138;28;20029;-96
2022/10/16 06:12:34;;;;;;;9.23;5.75;;;;;;;6.73;73.94;100419.63;4994269;28;20063;-96
2022/10/16 06:14:59;;;;;;;8.40;5.55;;;;;;;6.81;73.64;100422.84;5008085;28;20026;-96
2022/10/16 06:17:25;;;;;;;8.95;6.10;;;;;;;6.85;73.66;100415.22;5010511;28;20029;-96
2022/10/16 06:19:51;;;;;;;8.20;5.10;;;;;;;7.17;72.67;100421.31;5031734;28;20025;-96
2022/10/16 06:22:20;;;;;;;9.23;6.00;;;;;;;7.21;73.62;100421.69;5015143;28;20057;-96
2022/10/16 06:24:49;;;;;;;8.20;6.22;;;;;;;7.25;73.52;100420.22;5013906;28;20009;-96
2022/10/16 06:27:15;;;;;;;11.95;6.82;;;;;;;7.42;72.98;100432.00;5007824;28;20037;-95
2022/10/16 06:29:42;;;;;;;10.25;5.82;;;;;;;7.64;72.96;100442.31;4992698;28;20032;-96
2022/10/16 06:32:11;;;;;;;12.10;5.78;;;;;;;7.80;72.50;100439.03;4992491;28;20022;-95
2022/10/16 06:34:37;;;;;;;8.13;5.30;;;;;;;7.86;72.11;100443.50;4992151;28;20052;-96
2022/10/16 06:37:02;;;;;;;6.88;5.55;;;;;;;8.08;71.79;100445.72;4991852;28;20032;-95
2022/10/16 06:39:28;;;;;;;10.13;6.00;;;;;;;8.14;71.84;100436.75;5006256;28;20018;-95
2022/10/16 06:41:53;;;;;;;12.80;5.75;;;;;;;8.29;71.43;100445.22;4991538;28;20026;-95
2022/10/16 06:44:18;;;;;;;16.42;12.07;;;;;;;8.55;70.94;100455.84;5006014;28;20018;-94
2022/10/16 06:46:44;;;;;;;12.10;7.80;;;;;;;8.67;71.16;100462.91;4990193;28;20026;-95
2022/10/16 06:49:09;;;;;;;9.45;6.05;;;;;;;8.79;70.68;100454.06;5005935;28;20025;-94
2022/10/16 06:51:36;;;;;;;28.48;7.97;;;;;;;8.88;69.61;100466.94;4987447;28;20030;-94
2022/10/16 06:54:03;;;;;;;9.07;6.28;;;;;;;8.88;70.37;100461.56;5002754;28;20021;-94
2022/10/16 06:56:30;;;;;;;18.80;14.07;;;;;;;8.83;70.87;100456.06;4979930;28;20096;-94
2022/10/16 06:58:55;;;;;;;10.52;6.00;;;;;;;8.98;70.09;100455.63;4979375;28;20084;-95
2022/10/16 07:01:25;;;;;;;15.88;10.80;;;;;;;9.10;69.67;100461.81;4980936;28;20017;-94
2022/10/16 07:03:51;;;;;;;17.58;11.45;;;;;;;9.18;69.69;100468.72;5003398;28;20574;-94
2022/10/16 07:06:18;;;;;;;7.35;5.40;;;;;;;9.22;69.36;100458.34;4980352;28;20053;-94
2022/10/16 07:08:44;;;;;;;11.70;5.95;;;;;;;9.19;69.21;100461.47;4962723;28;20040;-94
2022/10/16 07:11:14;;;;;;;12.25;6.13;;;;;;;9.26;69.89;100471.09;4985173;28;20022;-94
2022/10/16 07:13:41;;;;;;;7.55;5.20;;;;;;;9.17;69.51;100467.13;4962970;28;20057;-93
2022/10/16 07:16:20;;;;;;;9.93;6.20;;;;;;;9.61;68.54;100488.28;4992408;28;20030;-95
2022/10/16 07:18:46;;;;;;;8.02;5.40;;;;;;;9.69;67.67;100464.53;5015313;28;20018;-94
2022/10/16 07:21:20;;;;;;;10.90;6.03;;;;;;;9.90;67.03;100483.81;4968261;28;20553;-95
2022/10/16 07:23:49;;;;;;;10.65;6.00;;;;;;;9.86;68.44;100475.38;4999892;28;20467;-94
2022/10/16 07:26:15;;;;;;;10.48;6.53;;;;;;;9.73;68.90;100470.25;4969909;28;20022;-94
2022/10/16 07:28:41;;;;;;;9.45;5.57;;;;;;;9.94;68.21;100471.53;4964332;28;20022;-94
2022/10/16 07:31:10;;;;;;;9.05;5.43;;;;;;;10.10;67.57;100484.22;4976750;28;20499;-94
2022/10/16 07:33:36;;;;;;;10.65;5.88;;;;;;;10.19;68.00;100500.84;4984552;28;20034;-94
2022/10/16 07:36:27;;;;;;;8.27;5.25;;;;;;;10.30;66.94;100458.81;4961172;28;20023;-96
2022/10/16 07:38:55;;;;;;;8.63;5.55;;;;;;;10.43;66.39;100476.53;4929444;29;20039;-96
2022/10/16 07:41:21;;;;;;;9.15;5.57;;;;;;;10.62;65.45;100475.28;4907411;29;20051;-95
2022/10/16 07:43:50;;;;;;;18.85;13.55;;;;;;;10.48;66.39;100472.09;4889423;29;20058;-94
2022/10/16 07:46:16;;;;;;;11.15;5.78;;;;;;;10.47;66.26;100466.94;4889758;29;20038;-95
2022/10/16 07:48:45;;;;;;;9.05;5.75;;;;;;;10.77;66.11;100468.53;4889122;29;20501;-94
2022/10/16 07:51:11;;;;;;;8.40;4.78;;;;;;;10.86;65.48;100472.47;4919474;28;20109;-93
2022/10/16 07:53:36;;;;;;;7.32;5.00;;;;;;;10.99;65.34;100482.13;4958679;28;20049;-94
2022/10/16 07:56:03;;;;;;;12.13;9.32;;;;;;;11.17;64.66;100486.47;4944977;28;20458;-94
2022/10/16 07:58:29;;;;;;;10.02;5.70;;;;;;;11.27;64.34;100486.66;4978343;28;20035;-94
2022/10/16 08:00:55;;;;;;;7.70;5.70;;;;;;;11.49;63.85;100492.91;4961995;28;20018;-94
2022/10/16 08:03:20;;;;;;;9.43;5.97;;;;;;;11.61;63.53;100495.50;4961851;28;20046;-91
2022/10/16 08:05:47;;;;;;;9.32;5.78;;;;;;;11.68;62.80;100479.13;4961702;28;20600;-93
2022/10/16 08:08:13;;;;;;;8.50;5.28;;;;;;;11.72;62.80;100464.94;4978699;28;20026;-94
2022/10/16 08:10:38;;;;;;;8.15;5.20;;;;;;;11.88;62.01;100468.66;5002669;28;20030;-95
2022/10/16 08:13:04;;;;;;;13.18;5.38;;;;;;;12.04;61.77;100474.28;4982185;28;20025;-94
2022/10/16 08:15:33;;;;;;;7.53;4.97;;;;;;;12.18;62.01;100485.50;4982165;28;20036;-93
2022/10/16 08:18:00;;;;;;;10.32;5.28;;;;;;;12.31;61.61;100483.22;4966104;28;20090;-93
2022/10/16 08:20:26;;;;;;;8.23;4.88;;;;;;;12.31;61.80;100477.03;4998893;28;20191;-93
2022/10/16 08:22:51;;;;;;;8.48;5.53;;;;;;;12.50;61.64;100472.91;5001510;28;20156;-93
2022/10/16 08:25:17;;;;;;;8.75;5.13;;;;;;;12.66;59.98;100465.78;5001519;28;20032;-94
2022/10/16 08:27:43;;;;;;;8.48;5.13;;;;;;;12.74;59.61;100453.66;5001170;28;20506;-93
2022/10/16 08:30:09;;;;;;;8.55;4.78;;;;;;;12.97;58.84;100476.88;5001315;28;20117;-94
2022/10/16 08:32:35;;;;;;;9.85;5.43;;;;;;;13.12;59.16;100474.28;4984068;28;20041;-93
2022/10/16 08:35:00;;;;;;;8.82;4.57;;;;;;;13.23;57.82;100469.78;4989391;28;20033;-94
2022/10/16 08:37:30;;;;;;;6.65;4.05;;;;;;;13.26;57.14;100454.91;5002458;28;20034;-93
2022/10/16 08:39:56;;;;;;;15.23;4.90;;;;;;;13.32;57.17;100454.75;4984327;28;20030;-94
2022/10/16 08:42:24;;;;;;;7.13;3.83;;;;;;;13.63;56.34;100479.28;4984763;28;20118;-93
2022/10/16 08:44:56;;;;;;;7.07;4.22;;;;;;;13.56;55.32;100483.31;5033567;28;20175;-94
2022/10/16 08:47:26;;;;;;;8.52;3.83;;;;;;;13.71;54.78;100475.25;5033519;28;20033;-93
2022/10/16 08:49:57;;;;;;;5.88;3.90;;;;;;;13.85;55.09;100481.03;5033417;28;20037;-93
2022/10/16 08:52:22;;;;;;;6.30;4.13;;;;;;;13.82;54.36;100451.75;4999808;28;20490;-93
2022/10/16 08:54:48;;;;;;;7.65;4.00;;;;;;;13.90;53.30;100465.63;5000387;28;20033;-94
2022/10/16 08:57:22;;;;;;;5.68;3.75;;;;;;;14.09;53.05;100479.53;4983890;28;20056;-94
2022/10/16 08:59:48;;;;;;;4.53;3.15;;;;;;;14.10;52.59;100470.31;5000993;28;20030;-94
2022/10/16 09:02:37;;;;;;;9.65;4.03;;;;;;;14.09;51.43;100479.53;5000233;28;20447;-94
2022/10/16 09:05:09;;;;;;;11.48;3.85;;;;;;;14.25;51.70;100474.97;5015935;28;20029;-93
2022/10/16 09:07:58;;;;;;;4.28;3.50;;;;;;;14.23;51.60;100452.75;5033108;28;20467;-92
2022/10/16 09:11:00;;;;;;;6.53;3.78;;;;;;;14.46;50.77;100480.44;5005923;28;20029;-92
2022/10/16 09:13:30;;;;;;;3.85;3.13;;;;;;;14.54;49.06;100485.34;5035435;28;20025;-92
2022/10/16 09:16:01;;;;;;;5.72;2.90;;;;;;;14.51;48.71;100484.00;5035723;28;20092;-92
2022/10/16 09:18:53;;;;;;;7.35;3.35;;;;;;;14.49;47.99;100477.22;5019432;28;20032;-92
2022/10/16 09:21:32;;;;;;;5.85;2.92;;;;;;;14.36;46.77;100459.56;4997557;28;20037;-91
2022/10/16 09:24:20;;;;;;;5.32;2.90;;;;;;;14.64;47.10;100481.88;4999338;28;20040;-92
2022/10/16 09:26:46;;;;;;;5.20;2.75;;;;;;;14.61;46.67;100458.84;5016672;28;20033;-91
2022/10/16 09:29:21;;;;;;;4.22;2.50;;;;;;;14.74;45.58;100480.00;5018379;28;20168;-91
2022/10/16 09:31:47;;;;;;;5.60;2.72;;;;;;;14.58;45.82;100472.13;5001661;28;20111;-92
2022/10/16 09:34:30;;;;;;;5.05;3.50;;;;;;;14.63;45.79;100481.09;4999302;28;20060;-91
2022/10/16 09:36:55;;;;;;;4.25;3.67;;;;;;;14.58;46.07;100464.78;4996812;28;20478;-92
2022/10/16 09:39:21;;;;;;;4.93;2.60;;;;;;;14.55;45.68;100459.91;4996103;28;20087;-91
2022/10/16 09:41:46;;;;;;;3.92;2.90;;;;;;;14.39;45.56;100456.31;4999588;28;20032;-92
2022/10/16 09:44:23;;;;;;;5.32;3.28;;;;;;;14.47;44.89;100460.41;5002367;28;20036;-92
2022/10/16 09:46:49;;;;;;;5.60;3.00;;;;;;;14.57;45.32;100460.47;5000024;28;20022;-91
2022/10/16 09:49:25;;;;;;;7.25;3.10;;;;;;;14.61;44.37;100453.44;4999275;28;20033;-91
2022/10/16 09:51:50;;;;;;;4.97;2.95;;;;;;;14.64;44.75;100457.50;5017861;28;20021;-91
2022/10/16 09:54:20;;;;;;;7.25;3.00;;;;;;;14.78;44.99;100461.31;5022334;28;20036;-92
2022/10/16 09:56:49;;;;;;;5.18;2.60;;;;;;;14.84;44.63;100456.72;5004423;28;20053;-92
2022/10/16 09:59:23;;;;;;;5.43;2.63;;;;;;;14.83;44.14;100469.44;5003650;28;20033;-91
2022/10/16 10:01:50;;;;;;;11.05;8.07;;;;;;;14.87;44.81;100465.09;4983580;28;20026;-91
2022/10/16 10:04:19;;;;;;;5.55;3.20;;;;;;;14.97;44.76;100463.50;4998846;28;20034;-92
2022/10/16 10:06:49;;;;;;;4.03;2.70;;;;;;;15.03;44.92;100455.09;5004306;28;20021;-91
2022/10/16 10:09:19;;;;;;;4.18;2.72;;;;;;;15.16;44.58;100476.22;5019254;28;20025;-92
2022/10/16 10:11:50;;;;;;;4.00;2.42;;;;;;;15.27;44.37;100465.38;5053388;28;20039;-94
2022/10/16 10:14:39;;;;;;;5.03;2.95;;;;;;;15.27;44.58;100462.66;5054099;28;20033;-92
2022/10/16 10:17:04;;;;;;;4.15;2.60;;;;;;;15.23;44.25;100459.69;5015501;28;20037;-92
2022/10/16 10:19:49;;;;;;;4.05;2.95;;;;;;;15.10;44.72;100439.34;5016841;28;20025;-91
2022/10/16 10:22:32;;;;;;;5.43;2.90;;;;;;;15.12;44.61;100439.06;4985967;28;20499;-92
2022/10/16 10:25:21;;;;;;;6.75;2.97;;;;;;;15.08;44.60;100419.81;4990586;28;20442;-92
2022/10/16 10:27:50;;;;;;;5.57;2.75;;;;;;;15.37;44.92;100454.50;5022381;28;20411;-92
2022/10/16 10:30:39;;;;;;;6.60;3.30;;;;;;;15.15;44.60;100443.97;5048805;28;20025;-91
2022/10/16 10:33:13;;;;;;;4.72;2.80;;;;;;;15.24;44.17;100447.75;5035369;28;20025;-91
2022/10/16 10:35:50;;;;;;;6.28;2.90;;;;;;;15.30;44.29;100454.00;5043690;28;20074;-91
2022/10/16 10:38:41;;;;;;;9.82;3.40;;;;;;;15.36;44.38;100445.56;5054909;28;20284;-91
2022/10/16 10:41:10;;;;;;;4.43;2.92;;;;;;;15.13;44.20;100444.22;5042963;28;20087;-92
2022/10/16 10:43:58;;;;;;;5.13;2.60;;;;;;;15.31;44.23;100439.31;5036249;28;20022;-91
2022/10/16 10:46:42;;;;;;;6.38;2.90;;;;;;;15.37;43.06;100421.94;5033748;28;20021;-92
2022/10/16 10:49:20;;;;;;;5.95;3.17;;;;;;;15.41;43.39;100430.34;5021618;28;20028;-92
2022/10/16 10:51:58;;;;;;;5.70;2.97;;;;;;;15.49;43.96;100436.03;5003530;28;20028;-92
2022/10/16 10:54:35;;;;;;;5.07;2.90;;;;;;;15.32;44.19;100440.97;5035836;28;20053;-91
2022/10/16 10:57:23;;;;;;;6.45;3.33;;;;;;;15.37;44.47;100430.09;4982000;28;20061;-92
2022/10/16 11:00:02;;;;;;;6.32;3.00;;;;;;;15.49;44.62;100433.31;5003152;28;20099;-91
2022/10/16 11:02:48;;;;;;;5.05;3.30;;;;;;;15.46;44.38;100422.19;5038304;28;20016;-92
2022/10/16 11:05:49;;;;;;;3.63;3.10;;;;;;;15.67;43.85;100422.97;5033474;28;20014;-91
2022/10/16 11:08:45;;;;;;;7.82;3.67;;;;;;;15.71;44.23;100415.91;5032103;28;20045;-92
2022/10/16 11:11:15;;;;;;;5.97;3.08;;;;;;;15.69;44.03;100401.78;5034239;28;20025;-91
2022/10/16 11:14:11;;;;;;;8.77;3.75;;;;;;;15.84;44.18;100412.63;5017681;28;20017;-91
2022/10/16 11:16:50;;;;;;;6.50;3.38;;;;;;;15.71;44.32;100408.56;5033723;28;20021;-92
2022/10/16 11:19:26;;;;;;;7.68;2.97;;;;;;;15.80;44.56;100408.81;5002640;28;20018;-92
2022/10/16 11:22:01;;;;;;;6.72;3.40;;;;;;;15.81;44.13;100396.84;5037005;28;20017;-92
2022/10/16 11:24:35;;;;;;;5.45;3.08;;;;;;;15.86;44.32;100396.03;5053832;28;20028;-92
2022/10/16 11:27:01;;;;;;;4.82;3.10;;;;;;;16.02;44.00;100413.06;4980994;28;20187;-92
2022/10/16 11:29:29;;;;;;;9.05;3.72;;;;;;;15.80;44.11;100395.25;4997808;28;20032;-92
2022/10/16 11:31:58;;;;;;;5.30;4.07;;;;;;;15.72;44.55;100387.66;5019586;28;20028;-92
2022/10/16 11:34:53;;;;;;;7.00;3.95;;;;;;;15.85;44.61;100403.34;5021288;28;20471;-92
2022/10/16 11:37:24;;;;;;;4.65;3.15;;;;;;;16.01;44.77;100406.81;5022077;28;20017;-92
2022/10/16 11:39:49;;;;;;;5.95;3.78;;;;;;;16.11;44.42;100414.13;5019129;28;20058;-92
2022/10/16 11:42:22;;;;;;;6.63;3.50;;;;;;;15.94;43.65;100401.69;5000796;28;20519;-92
2022/10/16 11:44:51;;;;;;;5.05;3.40;;;;;;;16.15;43.85;100402.41;4984993;28;20036;-91
2022/10/16 11:47:30;;;;;;;5.35;3.33;;;;;;;16.12;44.05;100394.84;5034003;28;20036;-92
2022/10/16 11:50:19;;;;;;;4.90;3.17;;;;;;;16.09;44.08;100389.13;5004421;28;20017;-91
2022/10/16 11:52:48;;;;;;;4.70;3.10;;;;;;;16.06;43.45;100393.22;5039041;28;20021;-92